createdAt,value
2023-01-25T00:01:31.644Z,19.52
2023-01-25T00:06:33.387Z,21.20
2023-01-25T00:11:36.504Z,21.92
2023-01-25T00:16:38.707Z,20.05
2023-01-25T00:21:40.621Z,19.87
2023-01-25T00:26:43.926Z,19.87
2023-01-25T00:32:23.429Z,19.65
2023-01-25T00:37:30.048Z,19.45
2023-01-25T00:42:33.256Z,20.37
2023-01-25T00:47:34.924Z,20.45
2023-01-25T00:52:36.667Z,20.02
2023-01-25T00:57:39.825Z,20.08
2023-01-25T01:02:46.311Z,20.33
2023-01-25T01:08:08.480Z,20.88
2023-01-25T01:13:11.737Z,20.85
2023-01-25T01:18:13.547Z,20.27
2023-01-25T01:23:15.316Z,20.30
2023-01-25T01:28:18.435Z,19.73
2023-01-25T01:33:20.172Z,19.73
2023-01-25T01:38:21.875Z,19.17
2023-01-25T01:43:25.083Z,21.10
2023-01-25T01:48:34.977Z,19.55
2023-01-25T01:53:37.504Z,19.23
2023-01-25T01:58:42.792Z,19.77
2023-01-25T02:03:44.839Z,21.23
2023-01-25T02:08:47.067Z,20.05
2023-01-25T02:13:52.834Z,20.15
2023-01-25T02:18:57.639Z,19.58
2023-01-25T02:24:04.645Z,22.15
2023-01-25T02:29:09.351Z,19.55
2023-01-25T02:39:15.282Z,18.33
2023-01-25T02:44:21.435Z,17.95
2023-01-25T02:49:23.149Z,20.20
2023-01-25T02:54:25.722Z,18.75
2023-01-25T02:59:28.875Z,20.20
2023-01-25T03:04:30.547Z,18.90
2023-01-25T03:09:32.182Z,20.45
2023-01-25T03:14:35.251Z,20.58
2023-01-25T03:19:36.909Z,19.15
2023-01-25T03:24:38.628Z,20.58
2023-01-25T03:29:41.910Z,20.20
2023-01-25T03:34:43.758Z,18.98
2023-01-25T03:39:45.555Z,19.83
2023-01-25T03:44:48.890Z,20.00
2023-01-25T03:49:50.539Z,20.10
2023-01-25T03:54:52.351Z,18.15
2023-01-25T03:59:55.520Z,19.65
2023-01-25T04:04:57.243Z,20.23
2023-01-25T04:09:58.915Z,20.00
2023-01-25T04:15:01.967Z,19.80
2023-01-25T04:20:04.319Z,20.58
2023-01-25T04:25:07.593Z,19.70
2023-01-25T04:30:12.035Z,19.27
2023-01-25T04:35:13.781Z,20.88
2023-01-25T04:40:18.384Z,20.88
2023-01-25T04:50:23.382Z,21.80
2023-01-25T04:55:25.088Z,20.58
2023-01-25T05:00:28.725Z,20.83
2023-01-25T05:05:30.485Z,20.37
2023-01-25T05:10:32.257Z,20.58
2023-01-25T05:15:35.377Z,20.20
2023-01-25T05:20:37.118Z,21.15
2023-01-25T05:25:38.883Z,21.23
2023-01-25T05:30:42.152Z,21.00
2023-01-25T05:35:43.920Z,20.35
2023-01-25T05:40:45.607Z,21.20
2023-01-25T05:45:53.435Z,20.83
2023-01-25T05:50:57.604Z,21.10
2023-01-25T05:56:04.947Z,19.90
2023-01-25T06:01:08.302Z,20.35
2023-01-25T06:06:09.975Z,20.73
2023-01-25T06:11:13.757Z,21.08
2023-01-25T06:16:17.797Z,19.80
2023-01-25T06:21:19.528Z,22.08
2023-01-25T06:26:21.271Z,23.52
2023-01-25T06:31:24.545Z,22.70
2023-01-25T06:36:26.529Z,22.95
2023-01-25T06:41:28.292Z,22.20
2023-01-25T06:46:32.309Z,23.52
2023-01-25T06:51:34.056Z,21.73
2023-01-25T06:56:36.188Z,23.33
2023-01-25T07:01:39.386Z,23.05
2023-01-25T07:06:41.189Z,21.67
2023-01-25T07:11:42.910Z,23.20
2023-01-25T07:16:45.989Z,21.65
2023-01-25T07:21:47.731Z,22.55
2023-01-25T07:26:49.469Z,20.10
2023-01-25T07:32:03.416Z,20.75
2023-01-25T07:37:05.180Z,23.27
2023-01-25T07:42:10.285Z,22.85
2023-01-25T07:47:13.375Z,22.42
2023-01-25T07:52:15.172Z,21.83
2023-01-25T07:57:16.876Z,22.37
2023-01-25T08:02:19.945Z,21.62
2023-01-25T08:07:21.625Z,22.30
2023-01-25T08:12:23.434Z,22.80
2023-01-25T08:17:26.597Z,23.55
2023-01-25T08:22:28.443Z,23.25
2023-01-25T08:27:30.097Z,23.17
2023-01-25T08:32:37.134Z,22.60
2023-01-25T08:37:39.036Z,23.58
2023-01-25T08:42:40.734Z,22.60
2023-01-25T08:47:46.572Z,22.95
2023-01-25T08:52:48.267Z,22.15
2023-01-25T08:57:49.946Z,22.55
2023-01-25T09:02:53.135Z,23.42
2023-01-25T09:07:55.151Z,22.27
2023-01-25T09:12:56.958Z,22.55
2023-01-25T09:18:00.101Z,23.67
2023-01-25T09:23:01.794Z,23.45
2023-01-25T09:28:03.833Z,24.42
2023-01-25T09:33:06.933Z,22.55
2023-01-25T09:38:08.656Z,24.17
2023-01-25T09:43:19.623Z,22.67
2023-01-25T09:48:32.154Z,24.40
2023-01-25T09:53:36.743Z,22.95
2023-01-25T10:03:50.017Z,25.50
2023-01-25T10:09:00.417Z,23.70
2023-01-25T10:14:02.228Z,25.02
2023-01-25T10:19:14.507Z,24.12
2023-01-25T10:24:49.232Z,22.58
2023-01-25T10:29:56.196Z,23.08
2023-01-25T10:35:29.162Z,23.35
2023-01-25T10:40:41.699Z,24.25
2023-01-25T10:45:43.400Z,24.60
2023-01-25T10:50:48.994Z,23.33
2023-01-25T10:56:05.725Z,24.02
2023-01-25T11:01:10.622Z,24.23
2023-01-25T11:06:29.763Z,25.42
2023-01-25T11:11:35.993Z,23.92
2023-01-25T11:16:40.239Z,23.62
2023-01-25T11:21:52.203Z,25.15
2023-01-25T11:27:12.674Z,23.95
2023-01-25T11:32:18.253Z,23.77
2023-01-25T11:37:35.914Z,24.12
2023-01-25T11:42:46.205Z,23.80
2023-01-25T11:48:01.491Z,24.33
2023-01-25T11:53:33.613Z,24.12
2023-01-25T11:58:51.436Z,25.12
2023-01-25T12:04:23.515Z,24.25
2023-01-25T12:09:36.283Z,24.45
2023-01-25T12:14:53.832Z,25.02
2023-01-25T12:20:16.997Z,24.48
2023-01-25T12:25:26.482Z,24.35
2023-01-25T12:30:40.112Z,23.08
2023-01-25T12:35:46.397Z,21.95
2023-01-25T12:40:53.206Z,22.08
2023-01-25T12:45:58.033Z,23.52
2023-01-25T12:51:00.105Z,23.52
2023-01-25T12:56:06.340Z,24.25
2023-01-25T13:01:15.925Z,23.83
2023-01-25T13:06:22.246Z,23.73
2023-01-25T13:11:30.177Z,24.17
2023-01-25T13:16:37.104Z,22.42
2023-01-25T13:21:42.181Z,24.85
2023-01-25T13:26:57.870Z,25.48
2023-01-25T13:32:00.788Z,24.90
2023-01-25T13:37:02.964Z,27.02
2023-01-25T13:42:19.329Z,25.20
2023-01-25T13:47:23.678Z,24.00
2023-01-25T13:52:27.001Z,24.60
2023-01-25T13:57:32.135Z,23.67
2023-01-25T14:02:35.396Z,22.85
2023-01-25T14:07:37.559Z,25.80
2023-01-25T14:12:42.513Z,24.05
2023-01-25T14:17:44.520Z,24.17
2023-01-25T14:22:50.328Z,27.55
2023-01-25T14:27:55.038Z,25.92
2023-01-25T14:37:59.443Z,22.75
2023-01-25T14:43:02.547Z,23.02
2023-01-25T14:48:04.487Z,22.15
2023-01-25T14:53:09.410Z,23.10
2023-01-25T14:58:17.057Z,23.67
2023-01-25T15:03:18.862Z,23.87
2023-01-25T15:08:29.580Z,25.35
2023-01-25T15:13:32.803Z,23.60
2023-01-25T15:18:44.759Z,23.17
2023-01-25T15:23:48.212Z,24.05
2023-01-25T15:28:52.813Z,23.10
2023-01-25T15:33:57.317Z,23.58
2023-01-25T15:38:59.432Z,24.05
2023-01-25T15:44:02.440Z,24.55
2023-01-25T15:49:05.171Z,24.98
2023-01-25T15:54:06.871Z,23.08
2023-01-25T15:59:17.053Z,24.40
2023-01-25T16:04:18.830Z,23.08
2023-01-25T16:09:22.128Z,24.55
2023-01-25T16:14:26.786Z,24.25
2023-01-25T16:24:30.088Z,23.83
2023-01-25T16:29:33.376Z,24.30
2023-01-25T16:34:35.379Z,23.27
2023-01-25T16:39:37.087Z,24.95
2023-01-25T16:44:40.217Z,25.48
2023-01-25T16:49:41.893Z,23.30
2023-01-25T17:01:55.134Z,24.35
2023-01-25T17:06:42.654Z,22.95
2023-01-25T17:11:44.608Z,25.55
2023-01-25T17:16:50.836Z,23.50
2023-01-25T17:21:52.824Z,24.23
2023-01-25T17:26:56.767Z,23.83
2023-01-25T17:32:27.553Z,25.43
2023-01-25T18:00:59.359Z,26.00
2023-01-25T18:06:07.411Z,24.70
2023-01-25T18:11:10.075Z,24.23
2023-01-25T18:16:13.919Z,25.20
2023-01-25T18:21:17.954Z,22.00
2023-01-25T18:26:23.015Z,24.83
2023-01-25T18:42:26.495Z,25.15
2023-01-25T18:48:12.913Z,25.25
2023-01-25T18:53:33.134Z,24.00
2023-01-25T18:58:54.400Z,26.73
2023-01-25T19:04:09.832Z,26.87
2023-01-25T19:09:34.765Z,25.92
2023-01-25T19:19:50.465Z,23.35
2023-01-25T19:24:52.422Z,25.02
2023-01-25T19:30:18.857Z,23.77
2023-01-25T19:35:25.218Z,26.12
2023-01-25T19:40:54.532Z,25.30
2023-01-25T19:46:09.900Z,25.65
2023-01-25T19:51:26.974Z,23.92
2023-01-25T20:02:12.084Z,26.55
2023-01-25T20:13:01.682Z,24.55
2023-01-25T20:23:20.361Z,23.05
2023-01-25T20:28:41.756Z,24.52
2023-01-25T20:34:43.571Z,25.45
2023-01-25T20:39:45.603Z,25.80
2023-01-25T20:45:13.048Z,24.95
2023-01-25T20:56:35.833Z,23.62
2023-01-25T21:01:39.212Z,25.55
2023-01-25T21:06:41.011Z,25.50
2023-01-25T21:11:43.295Z,25.02
2023-01-25T21:16:46.551Z,26.92
2023-01-25T21:27:42.647Z,25.52
2023-01-25T21:32:45.967Z,25.37
2023-01-25T21:37:48.077Z,24.65
2023-01-25T21:42:50.084Z,25.45
2023-01-25T21:47:58.080Z,28.23
2023-01-25T21:53:12.984Z,28.10
2023-01-25T21:58:14.775Z,24.87
2023-01-25T22:03:17.897Z,26.55
2023-01-25T22:08:19.763Z,26.90
2023-01-25T22:13:21.487Z,26.58
2023-01-25T22:18:25.008Z,27.30
2023-01-25T22:23:27.165Z,28.08
2023-01-25T22:28:33.242Z,27.70
2023-01-25T22:33:36.355Z,24.48
2023-01-25T22:38:38.367Z,25.08
2023-01-25T22:43:40.145Z,25.45
2023-01-25T22:48:43.240Z,27.25
2023-01-25T22:53:47.335Z,26.08
2023-01-25T22:58:49.333Z,26.42
2023-01-25T23:03:53.066Z,24.65
2023-01-25T23:08:55.941Z,27.87
2023-01-25T23:13:58.166Z,27.27
2023-01-25T23:19:01.620Z,26.33
2023-01-25T23:24:04.245Z,26.60
2023-01-25T23:29:08.098Z,27.37
2023-01-25T23:34:12.029Z,25.57
2023-01-25T23:39:13.768Z,30.17
2023-01-25T23:44:15.580Z,27.62
2023-01-25T23:49:18.725Z,26.60
2023-01-25T23:54:20.496Z,25.67
2023-01-25T23:59:22.307Z,25.50
